KFYM

Details ICAO KFYM
Name FAYETTEVILLE MUNI
Region United States
Timezone America/Chicago (UTC-6.0)
Plans Departing 3
Arriving 2
Stats Elevation 984 ft / 300 m (AMSL)
Location 35.059700° -86.564009°
Runways 1
Magnetic Variation 3.788° W
Sunrise 2017-12-17 12:49:50 UTC / 2017-12-17 06:49:50 Local
Sunset 2017-12-17 22:37:53 UTC / 2017-12-17 16:37:53 Local
Advertisement - Login to hide

Runways

ID Width Length Bearing (true) Bearing (mag) Surface Threshold Offset Overrun Length
02 100 ft / 30 m 5,913 ft / 1,802 m 13.79° 17.58° Asphalt 400 ft / 122 m 0 ft / 0 m
20 100 ft / 30 m 5,913 ft / 1,802 m 193.79° 197.58° Asphalt 510 ft / 155 m 0 ft / 0 m

Map

Weather


0- 5 10 15 20 25 30 35+ Temperature / ° C

Clouds and Precipitation
Forecast for 2017-12-18 00:00 UTC. Updated 7 minutes ago

Ground ~20,000 ft ~40,000 ft Winds

METAR

KFYM 172315Z AUTO 18005KT 10SM FEW009 OVC015 08/06 A3012 RMK A01

TAF

Not found

Frequencies

Recorded 135.27 MHz AWOS 3
Approach 125.60 MHz HUNTSVILLE APP/DEP
Unicom 122.80 MHz CTAF/UNICOM
Warning: Do not use this data for real-world aviation or navigation. No guarantee of current accuracy is given.